Time;durP1;ratioP1;P1;durP2;ratioP2;P2;SDS_P1;SDS_P2;PMS_P1;PMS_P2;Temp;Humidity;BMP_temperature;BMP_pressure;BME280_temperature;BME280_humidity;BME280_pressure;Samples;Min_cycle;Max_cycle;Signal;HPM_P1;HPM_P2
2023/10/20 00:02:15;;;;;;;;;;;;;;;;;;6179628;23;19915;-91
2023/10/20 00:04:41;;;;;;;;;;;;;;;;;;6171583;23;19919;-90
2023/10/20 00:07:09;;;;;;;;;;;;;;;;;;6177505;23;19919;-90
2023/10/20 00:09:36;;;;;;;;;;;;;;;;;;6178916;23;20256;-91
2023/10/20 00:12:04;;;;;;;;;;;;;;;;;;6229055;23;20255;-91
2023/10/20 00:14:31;;;;;;;;;;;;;;;;;;6200689;23;19924;-91
2023/10/20 00:16:57;;;;;;;;;;;;;;;;;;6172927;22;19920;-90
2023/10/20 00:19:23;;;;;;;;;;;;;;;;;;6174710;23;19924;-91
2023/10/20 00:21:49;;;;;;;;;;;;;;;;;;6172348;23;19919;-90
2023/10/20 00:24:15;;;;;;;;;;;;;;;;;;6176022;23;20423;-90
2023/10/20 00:26:41;;;;;;;;;;;;;;;;;;6199134;23;19947;-90
2023/10/20 00:29:08;;;;;;;;;;;;;;;;;;6205782;23;19935;-90
2023/10/20 00:31:34;;;;;;;;;;;;;;;;;;6232147;23;19966;-90
2023/10/20 00:34:00;;;;;;;;;;;;;;;;;;6203132;23;20272;-90
2023/10/20 00:36:27;;;;;;;;;;;;;;;;;;6205394;23;19919;-90
2023/10/20 00:38:53;;;;;;;;;;;;;;;;;;6205668;23;19923;-91
2023/10/20 00:41:19;;;;;;;;;;;;;;;;;;6205655;23;20341;-90
2023/10/20 00:43:45;;;;;;;;;;;;;;;;;;6175848;23;19931;-90
2023/10/20 00:46:11;;;;;;;;;;;;;;;;;;6179520;23;19998;-91
2023/10/20 00:48:37;;;;;;;;;;;;;;;;;;6205877;23;20279;-90
2023/10/20 00:51:05;;;;;;;;;;;;;;;;;;6180047;23;19986;-90
2023/10/20 00:53:32;;;;;;;;;;;;;;;;;;6207026;23;19919;-91
2023/10/20 00:55:58;;;;;;;;;;;;;;;;;;6176062;23;20235;-91
2023/10/20 00:58:24;;;;;;;;;;;;;;;;;;6203734;23;20360;-91
2023/10/20 01:00:50;;;;;;;;;;;;;;;;;;6177485;23;19974;-90
2023/10/20 01:03:15;;;;;;;;;;;;;;;;;;6205850;23;19973;-91
2023/10/20 01:05:41;;;;;;;;;;;;;;;;;;6201164;23;20018;-90
2023/10/20 01:08:08;;;;;;;;;;;;;;;;;;6179209;23;20352;-90
2023/10/20 01:10:34;;;;;;;;;;;;;;;;;;6180888;23;19957;-90
2023/10/20 01:13:00;;;;;;;;;;;;;;;;;;6201325;23;20233;-90
2023/10/20 01:15:27;;;;;;;;;;;;;;;;;;6202548;23;19924;-90
2023/10/20 01:17:53;;;;;;;;;;;;;;;;;;6175191;23;20026;-90
2023/10/20 01:20:18;;;;;;;;;;;;;;;;;;6201619;23;19950;-91
2023/10/20 01:22:44;;;;;;;;;;;;;;;;;;6199266;23;19923;-90
2023/10/20 01:25:11;;;;;;;;;;;;;;;;;;6202010;23;20699;-90
2023/10/20 01:27:37;;;;;;;;;;;;;;;;;;6202521;23;20336;-90
2023/10/20 01:30:12;;;;;;;;;;;;;;;;;;6203716;23;19919;-90
2023/10/20 01:32:38;;;;;;;;;;;;;;;;;;6201995;23;19919;-91
2023/10/20 01:35:04;;;;;;;;;;;;;;;;;;6202509;23;19942;-90
2023/10/20 01:37:30;;;;;;;;;;;;;;;;;;6202211;23;19919;-90
2023/10/20 01:39:56;;;;;;;;;;;;;;;;;;6199987;23;19919;-89
2023/10/20 01:42:22;;;;;;;;;;;;;;;;;;6202598;23;19973;-90
2023/10/20 01:44:48;;;;;;;;;;;;;;;;;;6201029;23;20411;-90
2023/10/20 01:47:14;;;;;;;;;;;;;;;;;;6202539;23;20296;-90
2023/10/20 01:49:40;;;;;;;;;;;;;;;;;;6203423;23;20296;-91
2023/10/20 01:52:06;;;;;;;;;;;;;;;;;;6206517;23;19922;-91
2023/10/20 01:54:32;;;;;;;;;;;;;;;;;;6182226;23;19915;-91
2023/10/20 01:56:58;;;;;;;;;;;;;;;;;;6200909;23;20290;-90
2023/10/20 01:59:24;;;;;;;;;;;;;;;;;;6229365;23;20178;-90
2023/10/20 02:01:50;;;;;;;;;;;;;;;;;;6199608;23;19943;-90
2023/10/20 02:04:17;;;;;;;;;;;;;;;;;;6229997;23;19935;-90
2023/10/20 02:06:43;;;;;;;;;;;;;;;;;;6200283;23;20348;-90
2023/10/20 02:09:09;;;;;;;;;;;;;;;;;;6229192;23;20009;-90
2023/10/20 02:11:36;;;;;;;;;;;;;;;;;;6197918;23;20072;-90
2023/10/20 02:14:03;;;;;;;;;;;;;;;;;;6199227;23;19927;-90
2023/10/20 02:16:29;;;;;;;;;;;;;;;;;;6200627;23;19986;-90
2023/10/20 02:18:55;;;;;;;;;;;;;;;;;;6174087;23;20031;-90
2023/10/20 02:21:21;;;;;;;;;;;;;;;;;;6201091;23;19927;-90
2023/10/20 02:23:47;;;;;;;;;;;;;;;;;;6202381;23;19919;-91
2023/10/20 02:26:14;;;;;;;;;;;;;;;;;;6177742;23;20374;-90
2023/10/20 02:28:40;;;;;;;;;;;;;;;;;;6177387;23;20018;-90
2023/10/20 02:31:06;;;;;;;;;;;;;;;;;;6205039;23;19970;-90
2023/10/20 02:33:33;;;;;;;;;;;;;;;;;;6179658;23;19919;-90
2023/10/20 02:35:58;;;;;;;;;;;;;;;;;;6176379;23;19998;-90
2023/10/20 02:38:24;;;;;;;;;;;;;;;;;;6177655;23;19927;-90
2023/10/20 02:40:50;;;;;;;;;;;;;;;;;;6176593;23;19919;-90
2023/10/20 02:43:16;;;;;;;;;;;;;;;;;;6203952;23;20348;-90
2023/10/20 02:45:42;;;;;;;;;;;;;;;;;;6227185;23;19919;-90
2023/10/20 02:48:08;;;;;;;;;;;;;;;;;;6204028;23;20392;-90
2023/10/20 02:50:35;;;;;;;;;;;;;;;;;;6205947;23;19919;-90
2023/10/20 02:53:01;;;;;;;;;;;;;;;;;;6202123;23;19920;-90
2023/10/20 02:55:27;;;;;;;;;;;;;;;;;;6207518;23;19928;-91
2023/10/20 02:57:53;;;;;;;;;;;;;;;;;;6230663;23;19919;-90
2023/10/20 03:00:21;;;;;;;;;;;;;;;;;;6205927;23;19951;-90
2023/10/20 03:02:48;;;;;;;;;;;;;;;;;;6178332;23;19919;-90
2023/10/20 03:05:14;;;;;;;;;;;;;;;;;;6206245;23;20457;-90
2023/10/20 03:07:40;;;;;;;;;;;;;;;;;;6201464;23;20316;-90
2023/10/20 03:10:06;;;;;;;;;;;;;;;;;;6205996;23;19926;-89
2023/10/20 03:12:32;;;;;;;;;;;;;;;;;;6182259;23;20336;-91
2023/10/20 03:14:58;;;;;;;;;;;;;;;;;;6204434;23;20717;-90
2023/10/20 03:17:24;;;;;;;;;;;;;;;;;;6205083;23;19969;-91
2023/10/20 03:19:51;;;;;;;;;;;;;;;;;;6201994;23;19927;-90
2023/10/20 03:22:17;;;;;;;;;;;;;;;;;;6201444;23;19916;-90
2023/10/20 03:24:42;;;;;;;;;;;;;;;;;;6176027;23;19919;-90
2023/10/20 03:27:08;;;;;;;;;;;;;;;;;;6177537;23;20014;-90
2023/10/20 03:29:36;;;;;;;;;;;;;;;;;;6204488;23;19924;-91
2023/10/20 03:32:03;;;;;;;;;;;;;;;;;;6175360;23;20360;-90
2023/10/20 03:34:28;;;;;;;;;;;;;;;;;;6179742;23;19920;-90
2023/10/20 03:36:55;;;;;;;;;;;;;;;;;;6202135;23;20366;-90
2023/10/20 03:39:21;;;;;;;;;;;;;;;;;;6203583;23;19923;-90
2023/10/20 03:41:47;;;;;;;;;;;;;;;;;;6200223;23;19951;-90
2023/10/20 03:44:13;;;;;;;;;;;;;;;;;;6177976;23;19955;-90
2023/10/20 03:46:49;;;;;;;;;;;;;;;;;;6201983;23;19923;-90
2023/10/20 03:49:18;;;;;;;;;;;;;;;;;;6180346;23;19947;-90
2023/10/20 03:51:51;;;;;;;;;;;;;;;;;;6180945;23;19935;-91
2023/10/20 03:54:17;;;;;;;;;;;;;;;;;;6234743;23;19969;-90
2023/10/20 03:56:43;;;;;;;;;;;;;;;;;;6179215;23;19924;-90
2023/10/20 03:59:09;;;;;;;;;;;;;;;;;;6176860;23;19930;-90
2023/10/20 04:01:35;;;;;;;;;;;;;;;;;;6179972;23;19958;-90
2023/10/20 04:04:01;;;;;;;;;;;;;;;;;;6178506;23;19935;-89
2023/10/20 04:06:27;;;;;;;;;;;;;;;;;;6203506;23;19920;-89
2023/10/20 04:08:52;;;;;;;;;;;;;;;;;;6203737;23;20220;-90
2023/10/20 04:11:18;;;;;;;;;;;;;;;;;;6204700;23;19927;-90
2023/10/20 04:13:44;;;;;;;;;;;;;;;;;;6200538;23;19929;-90
2023/10/20 04:16:12;;;;;;;;;;;;;;;;;;6203266;23;19930;-89
2023/10/20 04:18:38;;;;;;;;;;;;;;;;;;6204247;23;19923;-90
2023/10/20 04:21:04;;;;;;;;;;;;;;;;;;6204495;23;19919;-90
2023/10/20 04:23:30;;;;;;;;;;;;;;;;;;6203210;23;19969;-89
2023/10/20 04:25:57;;;;;;;;;;;;;;;;;;6176246;23;20291;-90
2023/10/20 04:28:37;;;;;;;;;;;;;;;;;;6179366;23;19926;-89
2023/10/20 05:04:09;;;;;;;;;;;;;;;;;;6201445;23;19927;-88
2023/10/20 05:09:43;;;;;;;;;;;;;;;;;;6173540;22;19948;-90
2023/10/20 05:12:09;;;;;;;;;;;;;;;;;;6145938;23;19916;-90
2023/10/20 05:14:35;;;;;;;;;;;;;;;;;;6169070;23;19924;-90
2023/10/20 05:17:01;;;;;;;;;;;;;;;;;;6168817;23;19920;-90
2023/10/20 05:19:32;;;;;;;;;;;;;;;;;;6171938;23;19923;-89
2023/10/20 05:21:59;;;;;;;;;;;;;;;;;;6196653;23;19920;-90
2023/10/20 05:24:25;;;;;;;;;;;;;;;;;;6168154;23;20329;-90
2023/10/20 05:26:51;;;;;;;;;;;;;;;;;;6192680;23;19919;-90
2023/10/20 05:29:18;;;;;;;;;;;;;;;;;;6198135;23;20283;-90
2023/10/20 05:31:44;;;;;;;;;;;;;;;;;;6194997;23;19923;-90
2023/10/20 05:34:11;;;;;;;;;;;;;;;;;;6173719;23;19986;-90
2023/10/20 05:36:37;;;;;;;;;;;;;;;;;;6173543;23;20469;-90
2023/10/20 05:39:09;;;;;;;;;;;;;;;;;;6196111;23;19928;-90
2023/10/20 05:41:35;;;;;;;;;;;;;;;;;;6175240;23;20371;-90
2023/10/20 05:44:01;;;;;;;;;;;;;;;;;;6197804;23;19920;-90
2023/10/20 05:46:28;;;;;;;;;;;;;;;;;;6175240;23;19919;-90
2023/10/20 05:48:54;;;;;;;;;;;;;;;;;;6197728;23;19920;-90
2023/10/20 05:51:21;;;;;;;;;;;;;;;;;;6175856;23;20250;-90
2023/10/20 05:53:47;;;;;;;;;;;;;;;;;;6198182;23;19922;-90
2023/10/20 05:56:13;;;;;;;;;;;;;;;;;;6198591;23;19919;-96
2023/10/20 05:58:40;;;;;;;;;;;;;;;;;;6197371;23;19931;-90
2023/10/20 06:01:06;;;;;;;;;;;;;;;;;;6201273;23;19923;-90
2023/10/20 06:03:32;;;;;;;;;;;;;;;;;;6196891;23;20101;-89
2023/10/20 06:05:58;;;;;;;;;;;;;;;;;;6200202;23;20469;-89
2023/10/20 06:08:24;;;;;;;;;;;;;;;;;;6205270;23;19923;-89
2023/10/20 06:10:52;;;;;;;;;;;;;;;;;;6202403;23;19919;-89
2023/10/20 06:13:18;;;;;;;;;;;;;;;;;;6203162;23;19920;-89
2023/10/20 06:15:44;;;;;;;;;;;;;;;;;;6201157;23;19920;-89
2023/10/20 06:18:10;;;;;;;;;;;;;;;;;;6201781;23;19961;-90
2023/10/20 06:20:36;;;;;;;;;;;;;;;;;;6199812;23;19947;-89
2023/10/20 06:23:02;;;;;;;;;;;;;;;;;;6178406;23;19923;-89
2023/10/20 06:25:28;;;;;;;;;;;;;;;;;;6179079;23;19954;-90
2023/10/20 06:27:54;;;;;;;;;;;;;;;;;;6202244;23;19947;-90
2023/10/20 06:30:23;;;;;;;;;;;;;;;;;;6204385;23;20212;-89
2023/10/20 06:33:16;;;;;;;;;;;;;;;;;;6197908;23;19919;-89
2023/10/20 06:35:51;;;;;;;;;;;;;;;;;;6197982;23;19919;-89
2023/10/20 06:38:19;;;;;;;;;;;;;;;;;;6179647;23;19969;-89
2023/10/20 06:40:47;;;;;;;;;;;;;;;;;;6224312;23;20315;-89
2023/10/20 06:43:13;;;;;;;;;;;;;;;;;;6176869;23;19920;-90
2023/10/20 06:45:42;;;;;;;;;;;;;;;;;;6180179;23;20203;-89
2023/10/20 06:48:09;;;;;;;;;;;;;;;;;;6203892;23;20461;-89
2023/10/20 06:50:35;;;;;;;;;;;;;;;;;;6203918;23;20252;-90
2023/10/20 06:53:01;;;;;;;;;;;;;;;;;;6201858;23;20393;-91
2023/10/20 06:55:49;;;;;;;;;;;;;;;;;;6182374;23;20045;-90
2023/10/20 06:58:32;;;;;;;;;;;;;;;;;;6203345;23;20396;-90
2023/10/20 07:00:58;;;;;;;;;;;;;;;;;;6198869;23;20371;-92
2023/10/20 07:03:24;;;;;;;;;;;;;;;;;;6183543;23;19920;-88
2023/10/20 07:05:51;;;;;;;;;;;;;;;;;;6201789;23;19920;-90
2023/10/20 07:08:17;;;;;;;;;;;;;;;;;;6178767;23;19919;-91
2023/10/20 07:10:43;;;;;;;;;;;;;;;;;;6176400;23;19976;-91
2023/10/20 07:13:12;;;;;;;;;;;;;;;;;;6205205;23;20486;-91
2023/10/20 07:15:40;;;;;;;;;;;;;;;;;;6202906;23;19923;-91
2023/10/20 07:18:06;;;;;;;;;;;;;;;;;;6204513;23;19989;-90
2023/10/20 07:20:33;;;;;;;;;;;;;;;;;;6202972;23;20356;-91
2023/10/20 07:22:59;;;;;;;;;;;;;;;;;;6178757;23;20018;-91
2023/10/20 07:25:25;;;;;;;;;;;;;;;;;;6231930;23;20328;-91
2023/10/20 07:27:51;;;;;;;;;;;;;;;;;;6175756;23;19926;-92
2023/10/20 07:30:17;;;;;;;;;;;;;;;;;;6205640;23;19919;-90
2023/10/20 07:32:43;;;;;;;;;;;;;;;;;;6179079;23;19922;-91
2023/10/20 07:35:11;;;;;;;;;;;;;;;;;;6181893;23;19923;-91
2023/10/20 07:37:37;;;;;;;;;;;;;;;;;;6206002;23;19920;-91
2023/10/20 07:40:04;;;;;;;;;;;;;;;;;;6181161;23;20329;-91
2023/10/20 07:42:31;;;;;;;;;;;;;;;;;;6204856;23;20494;-91
2023/10/20 07:44:57;;;;;;;;;;;;;;;;;;6177268;23;19965;-91
2023/10/20 07:47:22;;;;;;;;;;;;;;;;;;6222323;22;19904;-92
2023/10/20 07:49:48;;;;;;;;;;;;;;;;;;6194555;23;19980;-92
2023/10/20 07:52:14;;;;;;;;;;;;;;;;;;6228307;23;19919;-91
2023/10/20 07:54:40;;;;;;;;;;;;;;;;;;6228366;23;19920;-91
2023/10/20 07:57:07;;;;;;;;;;;;;;;;;;6213947;23;19919;-91
2023/10/20 07:59:33;;;;;;;;;;;;;;;;;;6180668;23;20002;-91
2023/10/20 08:01:59;;;;;;;;;;;;;;;;;;6199252;23;20412;-91
2023/10/20 08:04:26;;;;;;;;;;;;;;;;;;6205296;23;19927;-90
2023/10/20 08:06:54;;;;;;;;;;;;;;;;;;6199512;23;19920;-90
2023/10/20 08:09:20;;;;;;;;;;;;;;;;;;6206396;23;20334;-90
2023/10/20 08:11:46;;;;;;;;;;;;;;;;;;6205133;23;20020;-92
2023/10/20 08:14:12;;;;;;;;;;;;;;;;;;6205307;23;20005;-91
2023/10/20 08:16:38;;;;;;;;;;;;;;;;;;6177472;23;19919;-92
2023/10/20 08:19:04;;;;;;;;;;;;;;;;;;6203508;23;19931;-91
2023/10/20 08:21:30;;;;;;;;;;;;;;;;;;6204464;23;19920;-91
2023/10/20 08:23:59;;;;;;;;;;;;;;;;;;6175483;23;19919;-91
2023/10/20 08:26:25;;;;;;;;;;;;;;;;;;6200610;23;20001;-92
2023/10/20 08:28:51;;;;;;;;;;;;;;;;;;6200819;23;19916;-92
2023/10/20 08:31:17;;;;;;;;;;;;;;;;;;6205060;23;19970;-91
2023/10/20 08:33:43;;;;;;;;;;;;;;;;;;6202544;23;20284;-91
2023/10/20 08:36:11;;;;;;;;;;;;;;;;;;6181473;23;19962;-92
2023/10/20 08:38:37;;;;;;;;;;;;;;;;;;6204737;23;20348;-92
2023/10/20 08:41:03;;;;;;;;;;;;;;;;;;6178659;23;20224;-92
2023/10/20 08:43:29;;;;;;;;;;;;;;;;;;6181020;23;20337;-91
2023/10/20 08:45:55;;;;;;;;;;;;;;;;;;6178673;23;19942;-91
2023/10/20 08:48:22;;;;;;;;;;;;;;;;;;6205453;23;20352;-91
2023/10/20 08:50:48;;;;;;;;;;;;;;;;;;6200918;23;19947;-91
2023/10/20 08:53:14;;;;;;;;;;;;;;;;;;6180231;23;19915;-91
2023/10/20 08:55:40;;;;;;;;;;;;;;;;;;6181604;23;19926;-92
2023/10/20 08:58:06;;;;;;;;;;;;;;;;;;6182722;23;19942;-91
2023/10/20 09:00:32;;;;;;;;;;;;;;;;;;6182221;23;19920;-91
2023/10/20 09:02:59;;;;;;;;;;;;;;;;;;6227663;23;19923;-92
2023/10/20 09:05:26;;;;;;;;;;;;;;;;;;6204490;23;19923;-92
2023/10/20 09:07:52;;;;;;;;;;;;;;;;;;6199544;23;19923;-92
2023/10/20 09:10:18;;;;;;;;;;;;;;;;;;6200063;23;20006;-89
2023/10/20 09:12:44;;;;;;;;;;;;;;;;;;6172079;23;19926;-92
2023/10/20 09:15:11;;;;;;;;;;;;;;;;;;6200044;23;20086;-92
2023/10/20 09:17:37;;;;;;;;;;;;;;;;;;6174230;23;19923;-91
2023/10/20 09:20:03;;;;;;;;;;;;;;;;;;6195270;23;20481;-92
2023/10/20 09:22:28;;;;;;;;;;;;;;;;;;6201458;23;19919;-92
2023/10/20 09:24:55;;;;;;;;;;;;;;;;;;6200448;23;19970;-92
2023/10/20 09:27:22;;;;;;;;;;;;;;;;;;6178386;23;19935;-92
2023/10/20 09:29:48;;;;;;;;;;;;;;;;;;6199411;23;20247;-92
2023/10/20 09:32:14;;;;;;;;;;;;;;;;;;6202445;23;19919;-93
2023/10/20 09:34:39;;;;;;;;;;;;;;;;;;6200750;23;19927;-92
2023/10/20 09:37:05;;;;;;;;;;;;;;;;;;6201725;23;19923;-91
2023/10/20 09:39:31;;;;;;;;;;;;;;;;;;6179436;23;19923;-91
2023/10/20 09:41:57;;;;;;;;;;;;;;;;;;6202643;23;19915;-93
2023/10/20 09:44:23;;;;;;;;;;;;;;;;;;6206611;23;20277;-92
2023/10/20 09:46:52;;;;;;;;;;;;;;;;;;6176839;23;19919;-92
2023/10/20 09:49:19;;;;;;;;;;;;;;;;;;6205983;23;20003;-93
2023/10/20 09:51:48;;;;;;;;;;;;;;;;;;6175695;23;19990;-92
2023/10/20 09:54:14;;;;;;;;;;;;;;;;;;6204166;23;19982;-93
2023/10/20 09:56:40;;;;;;;;;;;;;;;;;;6201254;23;19920;-93
2023/10/20 09:59:08;;;;;;;;;;;;;;;;;;6205226;23;19974;-93
2023/10/20 10:01:34;;;;;;;;;;;;;;;;;;6178816;23;19926;-92
2023/10/20 10:04:00;;;;;;;;;;;;;;;;;;6174480;23;19953;-91
2023/10/20 10:06:26;;;;;;;;;;;;;;;;;;6201383;23;19946;-92
2023/10/20 10:08:52;;;;;;;;;;;;;;;;;;6181532;23;19927;-92
2023/10/20 10:11:19;;;;;;;;;;;;;;;;;;6205805;23;19919;-92
2023/10/20 10:13:45;;;;;;;;;;;;;;;;;;6202134;23;19926;-92
2023/10/20 10:16:15;;;;;;;;;;;;;;;;;;6206501;23;19919;-93
2023/10/20 10:18:43;;;;;;;;;;;;;;;;;;6177898;23;20037;-91
2023/10/20 10:21:10;;;;;;;;;;;;;;;;;;6204861;23;19927;-92
2023/10/20 10:23:36;;;;;;;;;;;;;;;;;;6202842;23;19951;-92
2023/10/20 10:26:02;;;;;;;;;;;;;;;;;;6179977;23;20290;-93
2023/10/20 10:28:30;;;;;;;;;;;;;;;;;;6205758;23;19919;-92
2023/10/20 10:30:58;;;;;;;;;;;;;;;;;;6176352;23;20334;-92
2023/10/20 10:33:26;;;;;;;;;;;;;;;;;;6178980;23;19919;-92
2023/10/20 10:35:52;;;;;;;;;;;;;;;;;;6178730;23;19919;-91
2023/10/20 10:38:21;;;;;;;;;;;;;;;;;;6205158;23;20256;-93
2023/10/20 10:40:47;;;;;;;;;;;;;;;;;;6178027;23;19930;-90
2023/10/20 10:43:13;;;;;;;;;;;;;;;;;;6207266;23;19945;-91
2023/10/20 10:45:40;;;;;;;;;;;;;;;;;;6198990;23;20419;-91
2023/10/20 10:48:06;;;;;;;;;;;;;;;;;;6177374;23;19931;-91
2023/10/20 10:50:35;;;;;;;;;;;;;;;;;;6204120;23;19920;-92
2023/10/20 10:53:01;;;;;;;;;;;;;;;;;;6176264;23;19919;-92
2023/10/20 10:55:27;;;;;;;;;;;;;;;;;;6204621;23;19927;-92
2023/10/20 10:57:53;;;;;;;;;;;;;;;;;;6175168;23;19951;-93
2023/10/20 11:00:18;;;;;;;;;;;;;;;;;;6203809;23;19996;-93
2023/10/20 11:02:44;;;;;;;;;;;;;;;;;;6198155;23;19919;-92
2023/10/20 11:05:10;;;;;;;;;;;;;;;;;;6175831;23;19991;-92
2023/10/20 11:07:36;;;;;;;;;;;;;;;;;;6178360;23;19923;-92
2023/10/20 11:10:03;;;;;;;;;;;;;;;;;;6200222;23;20337;-93
2023/10/20 11:12:30;;;;;;;;;;;;;;;;;;6205577;23;19920;-93
2023/10/20 11:14:57;;;;;;;;;;;;;;;;;;6177988;23;19920;-93
2023/10/20 11:17:23;;;;;;;;;;;;;;;;;;6177439;23;19958;-94
2023/10/20 11:19:48;;;;;;;;;;;;;;;;;;6173603;23;19924;-93
2023/10/20 11:22:17;;;;;;;;;;;;;;;;;;6183909;23;20295;-93
2023/10/20 11:24:43;;;;;;;;;;;;;;;;;;6205057;23;19919;-92
2023/10/20 11:27:09;;;;;;;;;;;;;;;;;;6181525;23;19926;-92
2023/10/20 11:29:35;;;;;;;;;;;;;;;;;;6207687;23;20038;-93
2023/10/20 11:32:05;;;;;;;;;;;;;;;;;;6177194;23;19973;-93
2023/10/20 11:34:31;;;;;;;;;;;;;;;;;;6180952;23;19919;-92
2023/10/20 11:36:57;;;;;;;;;;;;;;;;;;6203781;23;19919;-93
2023/10/20 11:39:24;;;;;;;;;;;;;;;;;;6180664;23;19931;-92
2023/10/20 11:41:50;;;;;;;;;;;;;;;;;;6204517;23;20332;-93
2023/10/20 11:44:16;;;;;;;;;;;;;;;;;;6181961;23;19973;-93
2023/10/20 11:46:43;;;;;;;;;;;;;;;;;;6180627;23;19919;-93
2023/10/20 11:49:09;;;;;;;;;;;;;;;;;;6181860;23;19927;-93
2023/10/20 11:51:35;;;;;;;;;;;;;;;;;;6204293;23;20367;-93
2023/10/20 11:54:01;;;;;;;;;;;;;;;;;;6205611;23;19950;-92
2023/10/20 11:56:27;;;;;;;;;;;;;;;;;;6181476;23;19919;-93
2023/10/20 11:58:53;;;;;;;;;;;;;;;;;;6180608;23;19923;-92
2023/10/20 12:01:19;;;;;;;;;;;;;;;;;;6182122;23;19920;-93
2023/10/20 12:03:45;;;;;;;;;;;;;;;;;;6178394;23;19989;-94
2023/10/20 12:06:11;;;;;;;;;;;;;;;;;;6208071;23;19924;-93
2023/10/20 12:08:37;;;;;;;;;;;;;;;;;;6207705;23;19931;-94
2023/10/20 12:11:04;;;;;;;;;;;;;;;;;;6181309;23;20400;-93
2023/10/20 12:13:29;;;;;;;;;;;;;;;;;;6182349;23;19926;-94
2023/10/20 12:15:55;;;;;;;;;;;;;;;;;;6178575;23;19969;-93
2023/10/20 12:18:21;;;;;;;;;;;;;;;;;;6179559;23;20018;-93
2023/10/20 12:20:47;;;;;;;;;;;;;;;;;;6180559;23;19919;-94
2023/10/20 12:23:15;;;;;;;;;;;;;;;;;;6208162;23;19923;-93
2023/10/20 12:25:41;;;;;;;;;;;;;;;;;;6180120;23;19920;-92
2023/10/20 12:28:07;;;;;;;;;;;;;;;;;;6183087;23;19920;-93
2023/10/20 12:30:33;;;;;;;;;;;;;;;;;;6182562;23;19919;-92
2023/10/20 12:32:59;;;;;;;;;;;;;;;;;;6176396;23;19923;-93
2023/10/20 12:35:25;;;;;;;;;;;;;;;;;;6208157;23;19993;-93
2023/10/20 12:37:51;;;;;;;;;;;;;;;;;;6180222;23;19923;-93
2023/10/20 12:40:18;;;;;;;;;;;;;;;;;;6181741;23;19931;-94
2023/10/20 12:42:44;;;;;;;;;;;;;;;;;;6205577;23;19916;-93
2023/10/20 12:45:10;;;;;;;;;;;;;;;;;;6209114;23;19969;-93
2023/10/20 12:47:36;;;;;;;;;;;;;;;;;;6205276;23;19928;-96
2023/10/20 12:50:03;;;;;;;;;;;;;;;;;;6202980;23;20221;-94
2023/10/20 12:52:32;;;;;;;;;;;;;;;;;;6173951;23;20000;-92
2023/10/20 12:55:00;;;;;;;;;;;;;;;;;;6198442;23;20449;-93
2023/10/20 12:57:26;;;;;;;;;;;;;;;;;;6198473;23;19924;-92
2023/10/20 12:59:55;;;;;;;;;;;;;;;;;;6173117;23;19930;-91
2023/10/20 13:02:21;;;;;;;;;;;;;;;;;;6175246;23;19920;-92
2023/10/20 13:04:47;;;;;;;;;;;;;;;;;;6173779;23;20510;-93
2023/10/20 13:07:13;;;;;;;;;;;;;;;;;;6200500;23;19951;-92
2023/10/20 13:09:39;;;;;;;;;;;;;;;;;;6173577;23;19931;-92
2023/10/20 13:12:04;;;;;;;;;;;;;;;;;;6203813;23;19927;-92
2023/10/20 13:14:30;;;;;;;;;;;;;;;;;;6201385;23;20635;-93
2023/10/20 13:17:05;;;;;;;;;;;;;;;;;;6202412;23;20367;-93
2023/10/20 13:19:32;;;;;;;;;;;;;;;;;;6174497;23;19924;-92
2023/10/20 13:21:58;;;;;;;;;;;;;;;;;;6198382;23;20225;-93
2023/10/20 13:24:24;;;;;;;;;;;;;;;;;;6201418;23;20321;-92
2023/10/20 13:26:51;;;;;;;;;;;;;;;;;;6196536;23;19990;-91
2023/10/20 13:35:40;;;;;;;;;;;;;;;;;;6140706;23;19930;-92
2023/10/20 13:38:37;;;;;;;;;;;;;;;;;;6106563;23;19968;-92
2023/10/20 13:41:23;;;;;;;;;;;;;;;;;;;;;
2023/10/20 13:43:50;;;;;;;;;;;;;;;;;;6198659;23;20213;-92
2023/10/20 13:46:18;;;;;;;;;;;;;;;;;;6174266;23;20031;-93
2023/10/20 13:48:44;;;;;;;;;;;;;;;;;;6170777;23;19926;-92
2023/10/20 13:51:10;;;;;;;;;;;;;;;;;;6202578;23;19955;-92
2023/10/20 13:53:36;;;;;;;;;;;;;;;;;;6195107;23;19977;-94
2023/10/20 13:56:02;;;;;;;;;;;;;;;;;;6194687;23;20284;-94
2023/10/20 13:58:28;;;;;;;;;;;;;;;;;;6194565;23;19920;-93
2023/10/20 14:00:54;;;;;;;;;;;;;;;;;;6170763;23;19969;-92
2023/10/20 14:03:23;;;;;;;;;;;;;;;;;;6197399;23;19977;-94
2023/10/20 14:05:49;;;;;;;;;;;;;;;;;;6174088;23;19920;-93
2023/10/20 14:08:15;;;;;;;;;;;;;;;;;;6171593;23;19925;-92
2023/10/20 14:10:42;;;;;;;;;;;;;;;;;;6192632;23;20291;-92
2023/10/20 14:13:08;;;;;;;;;;;;;;;;;;6182483;22;20359;-93
2023/10/20 14:15:34;;;;;;;;;;;;;;;;;;6199136;23;19922;-96
2023/10/20 14:18:00;;;;;;;;;;;;;;;;;;6167071;23;19926;-92
2023/10/20 14:20:26;;;;;;;;;;;;;;;;;;6172621;23;19919;-92
2023/10/20 14:22:52;;;;;;;;;;;;;;;;;;6196304;23;19924;-92
2023/10/20 14:25:18;;;;;;;;;;;;;;;;;;6176055;23;20256;-92
2023/10/20 14:27:44;;;;;;;;;;;;;;;;;;6175293;23;19919;-93
2023/10/20 14:30:10;;;;;;;;;;;;;;;;;;6178937;23;19951;-93
2023/10/20 14:32:36;;;;;;;;;;;;;;;;;;6202219;23;19977;-91
2023/10/20 14:35:02;;;;;;;;;;;;;;;;;;6199205;23;20651;-92
2023/10/20 14:37:29;;;;;;;;;;;;;;;;;;6200886;23;19920;-91
2023/10/20 14:39:55;;;;;;;;;;;;;;;;;;6199782;23;19927;-90
2023/10/20 14:42:32;;;;;;;;;;;;;;;;;;6178046;23;19924;-92
2023/10/20 14:44:59;;;;;;;;;;;;;;;;;;6177056;23;19920;-92
2023/10/20 14:47:28;;;;;;;;;;;;;;;;;;6203166;23;20351;-93
2023/10/20 14:49:57;;;;;;;;;;;;;;;;;;6178504;23;19920;-93
2023/10/20 14:52:23;;;;;;;;;;;;;;;;;;6204962;23;20369;-92
2023/10/20 14:54:49;;;;;;;;;;;;;;;;;;6176925;23;19925;-92
2023/10/20 15:03:14;;;;;;;;;;;;;;;;;;6240726;23;19918;-93
2023/10/20 15:05:40;;;;;;;;;;;;;;;;;;6175663;23;19919;-92
2023/10/20 15:08:05;;;;;;;;;;;;;;;;;;6206180;23;19931;-93
2023/10/20 15:10:31;;;;;;;;;;;;;;;;;;6179353;23;19923;-93
2023/10/20 15:12:58;;;;;;;;;;;;;;;;;;6230732;23;19919;-93
2023/10/20 15:15:23;;;;;;;;;;;;;;;;;;6180196;23;19919;-93
2023/10/20 15:17:49;;;;;;;;;;;;;;;;;;6205425;23;19923;-93
2023/10/20 15:20:15;;;;;;;;;;;;;;;;;;6205140;23;20010;-92
2023/10/20 15:22:41;;;;;;;;;;;;;;;;;;6201598;23;20346;-92
2023/10/20 15:25:07;;;;;;;;;;;;;;;;;;6177892;23;19927;-93
2023/10/20 15:27:33;;;;;;;;;;;;;;;;;;6179088;23;19994;-92
2023/10/20 15:29:59;;;;;;;;;;;;;;;;;;6175295;23;19934;-93
2023/10/20 15:32:25;;;;;;;;;;;;;;;;;;6207059;23;19943;-94
2023/10/20 15:34:51;;;;;;;;;;;;;;;;;;6201109;23;20249;-94
2023/10/20 15:37:17;;;;;;;;;;;;;;;;;;6177208;23;19920;-94
2023/10/20 15:39:43;;;;;;;;;;;;;;;;;;6203668;23;20423;-92
2023/10/20 15:42:09;;;;;;;;;;;;;;;;;;6177998;23;20299;-93
2023/10/20 15:44:35;;;;;;;;;;;;;;;;;;6178350;23;20348;-94
2023/10/20 15:47:01;;;;;;;;;;;;;;;;;;6176797;23;19977;-93
2023/10/20 15:49:27;;;;;;;;;;;;;;;;;;6179178;23;19986;-94
2023/10/20 15:51:53;;;;;;;;;;;;;;;;;;6180271;23;20062;-93
2023/10/20 15:54:19;;;;;;;;;;;;;;;;;;6200646;23;20024;-93
2023/10/20 15:56:45;;;;;;;;;;;;;;;;;;6175312;23;19924;-93
2023/10/20 15:59:11;;;;;;;;;;;;;;;;;;6177616;23;19934;-93
2023/10/20 16:01:38;;;;;;;;;;;;;;;;;;6175430;23;19919;-92
2023/10/20 16:04:04;;;;;;;;;;;;;;;;;;6204035;23;19999;-92
2023/10/20 16:06:30;;;;;;;;;;;;;;;;;;6203617;23;20034;-93
2023/10/20 16:08:56;;;;;;;;;;;;;;;;;;6175774;23;19978;-94
2023/10/20 16:11:22;;;;;;;;;;;;;;;;;;6202308;23;19926;-93
2023/10/20 16:13:48;;;;;;;;;;;;;;;;;;6172558;23;20678;-93
2023/10/20 16:16:20;;;;;;;;;;;;;;;;;;6177261;23;19923;-94
2023/10/20 16:18:46;;;;;;;;;;;;;;;;;;6200232;23;19919;-94
2023/10/20 16:21:12;;;;;;;;;;;;;;;;;;6176689;23;19955;-92
2023/10/20 16:23:38;;;;;;;;;;;;;;;;;;6178046;23;19919;-92
2023/10/20 16:26:05;;;;;;;;;;;;;;;;;;6203003;23;19998;-94
2023/10/20 16:28:31;;;;;;;;;;;;;;;;;;6199059;23;19923;-94
2023/10/20 16:31:00;;;;;;;;;;;;;;;;;;6199055;23;20320;-94
2023/10/20 16:33:26;;;;;;;;;;;;;;;;;;6175257;23;19919;-94
2023/10/20 16:35:53;;;;;;;;;;;;;;;;;;6197377;23;19923;-92
2023/10/20 16:38:19;;;;;;;;;;;;;;;;;;6176364;23;19990;-92
2023/10/20 16:40:47;;;;;;;;;;;;;;;;;;6174776;23;19990;-93
2023/10/20 16:43:13;;;;;;;;;;;;;;;;;;6178147;23;19969;-93
2023/10/20 16:45:39;;;;;;;;;;;;;;;;;;6174297;23;20599;-93
2023/10/20 16:48:06;;;;;;;;;;;;;;;;;;6174016;23;19924;-93
2023/10/20 16:50:32;;;;;;;;;;;;;;;;;;6200897;23;19950;-93
2023/10/20 16:52:58;;;;;;;;;;;;;;;;;;6200956;23;20386;-92
2023/10/20 16:55:24;;;;;;;;;;;;;;;;;;6177408;23;20425;-93
2023/10/20 16:57:50;;;;;;;;;;;;;;;;;;6174093;23;19926;-93
2023/10/20 17:00:17;;;;;;;;;;;;;;;;;;6203039;23;19923;-93
2023/10/20 17:02:43;;;;;;;;;;;;;;;;;;6200713;23;19990;-93
2023/10/20 17:05:09;;;;;;;;;;;;;;;;;;6201928;23;19999;-93
2023/10/20 17:07:35;;;;;;;;;;;;;;;;;;6177812;23;19923;-92
2023/10/20 17:10:01;;;;;;;;;;;;;;;;;;6201184;23;20115;-92
2023/10/20 17:12:27;;;;;;;;;;;;;;;;;;6174597;23;19951;-92
2023/10/20 17:14:53;;;;;;;;;;;;;;;;;;6174399;23;19994;-93
2023/10/20 17:17:19;;;;;;;;;;;;;;;;;;6174199;23;20280;-92
2023/10/20 17:19:45;;;;;;;;;;;;;;;;;;6198917;23;19934;-93
2023/10/20 17:22:11;;;;;;;;;;;;;;;;;;6202615;23;19966;-93
2023/10/20 17:24:37;;;;;;;;;;;;;;;;;;6201023;23;20605;-94
2023/10/20 17:27:03;;;;;;;;;;;;;;;;;;6200096;23;19920;-94
2023/10/20 17:29:28;;;;;;;;;;;;;;;;;;6202221;23;19916;-92
2023/10/20 17:31:54;;;;;;;;;;;;;;;;;;6196171;23;19926;-92